sensor_id;sensor_type;location;lat;lon;timestamp;P1;durP1;ratioP1;P2;durP2;ratioP2
5774;SDS011;2913;51.120;6.772;2023-09-07T00:49:11;1999.90;;;892.70;;
5774;SDS011;2913;51.120;6.772;2023-09-07T00:51:37;1999.90;;;821.95;;
5774;SDS011;2913;51.120;6.772;2023-09-07T00:54:05;1999.90;;;520.60;;
5774;SDS011;2913;51.120;6.772;2023-09-07T00:56:31;1999.90;;;608.45;;
5774;SDS011;2913;51.120;6.772;2023-09-07T00:59:02;1999.90;;;733.33;;
5774;SDS011;2913;51.120;6.772;2023-09-07T01:01:29;1999.90;;;518.95;;
5774;SDS011;2913;51.120;6.772;2023-09-07T01:03:58;1999.90;;;596.95;;
5774;SDS011;2913;51.120;6.772;2023-09-07T01:06:30;1999.90;;;840.72;;
5774;SDS011;2913;51.120;6.772;2023-09-07T01:09:05;1999.90;;;765.83;;
5774;SDS011;2913;51.120;6.772;2023-09-07T01:11:36;1999.90;;;695.80;;
5774;SDS011;2913;51.120;6.772;2023-09-07T01:14:04;1999.90;;;750.75;;
5774;SDS011;2913;51.120;6.772;2023-09-07T01:16:31;1999.90;;;782.13;;
5774;SDS011;2913;51.120;6.772;2023-09-07T01:19:03;1596.38;;;401.33;;
5774;SDS011;2913;51.120;6.772;2023-09-07T01:21:34;1537.68;;;388.23;;
5774;SDS011;2913;51.120;6.772;2023-09-07T01:24:01;1606.07;;;401.80;;
5774;SDS011;2913;51.120;6.772;2023-09-07T01:26:31;1497.50;;;374.45;;
5774;SDS011;2913;51.120;6.772;2023-09-07T01:29:00;1659.45;;;408.13;;
5774;SDS011;2913;51.120;6.772;2023-09-07T01:31:26;1999.90;;;632.53;;
5774;SDS011;2913;51.120;6.772;2023-09-07T01:33:52;1999.90;;;718.75;;
5774;SDS011;2913;51.120;6.772;2023-09-07T01:36:20;1999.90;;;852.83;;
5774;SDS011;2913;51.120;6.772;2023-09-07T01:38:45;1999.90;;;773.10;;
5774;SDS011;2913;51.120;6.772;2023-09-07T01:41:11;1999.90;;;696.40;;
5774;SDS011;2913;51.120;6.772;2023-09-07T01:43:37;1999.90;;;674.25;;
5774;SDS011;2913;51.120;6.772;2023-09-07T01:46:05;1999.90;;;646.25;;
5774;SDS011;2913;51.120;6.772;2023-09-07T01:48:30;1999.90;;;635.40;;
5774;SDS011;2913;51.120;6.772;2023-09-07T01:50:58;1999.90;;;645.33;;
5774;SDS011;2913;51.120;6.772;2023-09-07T01:53:24;1999.90;;;599.13;;
5774;SDS011;2913;51.120;6.772;2023-09-07T01:55:49;1999.90;;;614.33;;
5774;SDS011;2913;51.120;6.772;2023-09-07T01:58:15;1999.90;;;560.60;;
5774;SDS011;2913;51.120;6.772;2023-09-07T02:00:41;1755.40;;;434.23;;
5774;SDS011;2913;51.120;6.772;2023-09-07T02:03:07;1999.90;;;699.38;;
5774;SDS011;2913;51.120;6.772;2023-09-07T02:05:33;1999.90;;;756.47;;
5774;SDS011;2913;51.120;6.772;2023-09-07T02:07:58;1999.90;;;796.85;;
5774;SDS011;2913;51.120;6.772;2023-09-07T02:10:24;1999.90;;;687.58;;
5774;SDS011;2913;51.120;6.772;2023-09-07T02:12:50;1999.90;;;615.00;;
5774;SDS011;2913;51.120;6.772;2023-09-07T02:15:16;1999.90;;;613.67;;
5774;SDS011;2913;51.120;6.772;2023-09-07T02:17:42;1999.90;;;608.45;;
5774;SDS011;2913;51.120;6.772;2023-09-07T02:20:13;1999.90;;;507.92;;
5774;SDS011;2913;51.120;6.772;2023-09-07T02:22:39;1999.90;;;556.33;;
5774;SDS011;2913;51.120;6.772;2023-09-07T02:25:07;1999.90;;;567.13;;
5774;SDS011;2913;51.120;6.772;2023-09-07T02:27:33;1999.90;;;608.75;;
5774;SDS011;2913;51.120;6.772;2023-09-07T02:29:59;1999.90;;;537.88;;
5774;SDS011;2913;51.120;6.772;2023-09-07T02:32:24;1999.90;;;550.40;;
5774;SDS011;2913;51.120;6.772;2023-09-07T02:34:50;1999.90;;;536.10;;
5774;SDS011;2913;51.120;6.772;2023-09-07T02:37:18;1814.38;;;437.77;;
5774;SDS011;2913;51.120;6.772;2023-09-07T02:39:43;1999.90;;;507.65;;
5774;SDS011;2913;51.120;6.772;2023-09-07T02:42:09;1999.90;;;543.47;;
5774;SDS011;2913;51.120;6.772;2023-09-07T02:44:37;1885.35;;;445.27;;
5774;SDS011;2913;51.120;6.772;2023-09-07T02:47:03;1999.90;;;604.22;;
5774;SDS011;2913;51.120;6.772;2023-09-07T02:49:29;1999.90;;;542.40;;
5774;SDS011;2913;51.120;6.772;2023-09-07T02:51:54;1999.90;;;534.63;;
5774;SDS011;2913;51.120;6.772;2023-09-07T02:54:22;1999.90;;;500.48;;
5774;SDS011;2913;51.120;6.772;2023-09-07T02:56:48;1877.93;;;454.08;;
5774;SDS011;2913;51.120;6.772;2023-09-07T02:59:16;1429.82;;;349.25;;
5774;SDS011;2913;51.120;6.772;2023-09-07T03:01:44;1547.40;;;380.00;;
5774;SDS011;2913;51.120;6.772;2023-09-07T03:04:12;1763.53;;;419.15;;
5774;SDS011;2913;51.120;6.772;2023-09-07T03:06:37;1770.70;;;427.42;;
5774;SDS011;2913;51.120;6.772;2023-09-07T03:09:05;1539.53;;;369.30;;
5774;SDS011;2913;51.120;6.772;2023-09-07T03:11:34;1843.55;;;471.60;;
5774;SDS011;2913;51.120;6.772;2023-09-07T03:14:02;1961.25;;;479.35;;
5774;SDS011;2913;51.120;6.772;2023-09-07T03:16:28;1424.43;;;360.00;;
5774;SDS011;2913;51.120;6.772;2023-09-07T03:18:55;1999.90;;;614.67;;
5774;SDS011;2913;51.120;6.772;2023-09-07T03:21:21;546.47;;;156.85;;
5774;SDS011;2913;51.120;6.772;2023-09-07T03:23:50;1794.35;;;470.35;;
5774;SDS011;2913;51.120;6.772;2023-09-07T03:26:17;1284.28;;;324.08;;
5774;SDS011;2913;51.120;6.772;2023-09-07T03:28:45;1148.45;;;293.83;;
5774;SDS011;2913;51.120;6.772;2023-09-07T03:31:11;1236.38;;;314.38;;
5774;SDS011;2913;51.120;6.772;2023-09-07T03:33:36;1219.72;;;308.98;;
5774;SDS011;2913;51.120;6.772;2023-09-07T03:36:04;746.30;;;206.38;;
5774;SDS011;2913;51.120;6.772;2023-09-07T03:38:30;609.00;;;173.75;;
5774;SDS011;2913;51.120;6.772;2023-09-07T03:40:55;603.17;;;172.60;;
5774;SDS011;2913;51.120;6.772;2023-09-07T03:43:21;590.75;;;167.98;;
5774;SDS011;2913;51.120;6.772;2023-09-07T03:45:47;551.58;;;157.77;;
5774;SDS011;2913;51.120;6.772;2023-09-07T03:48:13;510.92;;;147.77;;
5774;SDS011;2913;51.120;6.772;2023-09-07T03:50:41;288.98;;;107.32;;
5774;SDS011;2913;51.120;6.772;2023-09-07T03:53:06;317.40;;;110.28;;
5774;SDS011;2913;51.120;6.772;2023-09-07T03:55:41;387.80;;;126.90;;
5774;SDS011;2913;51.120;6.772;2023-09-07T03:58:08;97.38;;;50.65;;
5774;SDS011;2913;51.120;6.772;2023-09-07T04:00:37;91.30;;;48.92;;
5774;SDS011;2913;51.120;6.772;2023-09-07T04:03:07;73.20;;;30.55;;
5774;SDS011;2913;51.120;6.772;2023-09-07T04:05:33;53.75;;;24.23;;
5774;SDS011;2913;51.120;6.772;2023-09-07T04:07:58;179.07;;;83.65;;
5774;SDS011;2913;51.120;6.772;2023-09-07T04:10:25;180.93;;;82.45;;
5774;SDS011;2913;51.120;6.772;2023-09-07T04:12:53;223.75;;;93.15;;
5774;SDS011;2913;51.120;6.772;2023-09-07T04:15:19;156.43;;;75.72;;
5774;SDS011;2913;51.120;6.772;2023-09-07T04:17:49;172.20;;;78.38;;
5774;SDS011;2913;51.120;6.772;2023-09-07T04:20:18;129.23;;;56.60;;
5774;SDS011;2913;51.120;6.772;2023-09-07T04:22:46;57.45;;;23.90;;
5774;SDS011;2913;51.120;6.772;2023-09-07T04:25:12;40.85;;;14.65;;
5774;SDS011;2913;51.120;6.772;2023-09-07T04:27:37;48.42;;;17.83;;
5774;SDS011;2913;51.120;6.772;2023-09-07T04:30:05;41.33;;;14.18;;
5774;SDS011;2913;51.120;6.772;2023-09-07T04:32:32;45.25;;;16.05;;
5774;SDS011;2913;51.120;6.772;2023-09-07T04:34:57;47.05;;;13.52;;
5774;SDS011;2913;51.120;6.772;2023-09-07T04:37:24;51.90;;;19.75;;
5774;SDS011;2913;51.120;6.772;2023-09-07T04:39:51;180.13;;;72.60;;
5774;SDS011;2913;51.120;6.772;2023-09-07T04:42:19;563.83;;;161.85;;
5774;SDS011;2913;51.120;6.772;2023-09-07T04:44:47;800.88;;;220.10;;
5774;SDS011;2913;51.120;6.772;2023-09-07T04:47:16;966.00;;;260.00;;
5774;SDS011;2913;51.120;6.772;2023-09-07T04:49:41;1203.40;;;314.88;;
5774;SDS011;2913;51.120;6.772;2023-09-07T04:52:13;1384.00;;;354.00;;
5774;SDS011;2913;51.120;6.772;2023-09-07T04:54:41;1445.32;;;368.52;;
5774;SDS011;2913;51.120;6.772;2023-09-07T04:57:10;1573.90;;;401.40;;
5774;SDS011;2913;51.120;6.772;2023-09-07T04:59:41;1404.22;;;360.58;;
5774;SDS011;2913;51.120;6.772;2023-09-07T05:02:07;1606.95;;;412.15;;
5774;SDS011;2913;51.120;6.772;2023-09-07T05:04:33;1656.65;;;424.55;;
5774;SDS011;2913;51.120;6.772;2023-09-07T05:06:58;1431.25;;;362.42;;
5774;SDS011;2913;51.120;6.772;2023-09-07T05:09:26;1767.43;;;451.67;;
5774;SDS011;2913;51.120;6.772;2023-09-07T05:11:54;1025.32;;;273.60;;
5774;SDS011;2913;51.120;6.772;2023-09-07T05:14:19;855.85;;;233.98;;
5774;SDS011;2913;51.120;6.772;2023-09-07T05:16:45;880.60;;;240.00;;
5774;SDS011;2913;51.120;6.772;2023-09-07T05:19:11;1201.00;;;311.73;;
5774;SDS011;2913;51.120;6.772;2023-09-07T05:21:39;1060.00;;;281.90;;
5774;SDS011;2913;51.120;6.772;2023-09-07T05:24:07;1133.13;;;298.20;;
5774;SDS011;2913;51.120;6.772;2023-09-07T05:26:36;1307.07;;;335.48;;
5774;SDS011;2913;51.120;6.772;2023-09-07T05:29:01;1346.60;;;343.58;;
5774;SDS011;2913;51.120;6.772;2023-09-07T05:31:29;1455.03;;;368.75;;
5774;SDS011;2913;51.120;6.772;2023-09-07T05:33:55;1348.38;;;343.27;;
5774;SDS011;2913;51.120;6.772;2023-09-07T05:36:22;1487.60;;;371.50;;
5774;SDS011;2913;51.120;6.772;2023-09-07T05:38:48;1434.65;;;359.50;;
5774;SDS011;2913;51.120;6.772;2023-09-07T05:41:18;1358.22;;;343.73;;
5774;SDS011;2913;51.120;6.772;2023-09-07T05:43:44;1429.35;;;357.23;;
5774;SDS011;2913;51.120;6.772;2023-09-07T05:46:10;1498.00;;;374.55;;
5774;SDS011;2913;51.120;6.772;2023-09-07T05:48:36;1596.72;;;397.42;;
5774;SDS011;2913;51.120;6.772;2023-09-07T05:51:02;1348.65;;;339.63;;
5774;SDS011;2913;51.120;6.772;2023-09-07T05:53:28;1593.07;;;393.98;;
5774;SDS011;2913;51.120;6.772;2023-09-07T05:55:54;1607.28;;;398.55;;
5774;SDS011;2913;51.120;6.772;2023-09-07T05:58:19;1582.60;;;388.80;;
5774;SDS011;2913;51.120;6.772;2023-09-07T06:00:45;1594.60;;;387.27;;
5774;SDS011;2913;51.120;6.772;2023-09-07T06:03:13;1999.90;;;485.40;;
5774;SDS011;2913;51.120;6.772;2023-09-07T06:05:39;1999.90;;;534.00;;
5774;SDS011;2913;51.120;6.772;2023-09-07T06:08:05;1999.90;;;741.50;;
5774;SDS011;2913;51.120;6.772;2023-09-07T08:10:25;725.90;;;64.25;;
5774;SDS011;2913;51.120;6.772;2023-09-07T08:12:53;725.90;;;58.30;;
5774;SDS011;2913;51.120;6.772;2023-09-07T08:15:20;719.80;;;62.50;;
5774;SDS011;2913;51.120;6.772;2023-09-07T08:17:47;705.50;;;61.00;;
5774;SDS011;2913;51.120;6.772;2023-09-07T08:20:22;683.90;;;59.20;;
5774;SDS011;2913;51.120;6.772;2023-09-07T08:22:52;668.03;;;59.60;;
5774;SDS011;2913;51.120;6.772;2023-09-07T08:25:20;673.70;;;59.20;;
5774;SDS011;2913;51.120;6.772;2023-09-07T08:27:48;657.13;;;56.87;;
5774;SDS011;2913;51.120;6.772;2023-09-07T08:30:20;658.50;;;59.95;;
5774;SDS011;2913;51.120;6.772;2023-09-07T08:32:52;653.20;;;62.92;;
5774;SDS011;2913;51.120;6.772;2023-09-07T08:35:17;655.00;;;58.13;;
5774;SDS011;2913;51.120;6.772;2023-09-07T08:37:43;653.40;;;59.13;;
5774;SDS011;2913;51.120;6.772;2023-09-07T08:40:11;836.85;;;101.85;;
5774;SDS011;2913;51.120;6.772;2023-09-07T08:50:04;698.45;;;62.25;;
5774;SDS011;2913;51.120;6.772;2023-09-07T08:55:02;694.13;;;91.85;;
5774;SDS011;2913;51.120;6.772;2023-09-07T08:57:30;689.50;;;60.65;;
5774;SDS011;2913;51.120;6.772;2023-09-07T08:59:58;723.23;;;68.17;;
5774;SDS011;2913;51.120;6.772;2023-09-07T13:23:28;1999.90;;;999.90;;
5774;SDS011;2913;51.120;6.772;2023-09-07T19:13:05;1999.20;;;644.20;;
5774;SDS011;2913;51.120;6.772;2023-09-07T19:15:30;555.28;;;66.55;;
5774;SDS011;2913;51.120;6.772;2023-09-07T19:17:56;576.90;;;65.60;;
5774;SDS011;2913;51.120;6.772;2023-09-07T19:20:21;615.40;;;67.90;;
5774;SDS011;2913;51.120;6.772;2023-09-07T19:22:47;562.70;;;88.77;;
5774;SDS011;2913;51.120;6.772;2023-09-07T19:25:13;1287.80;;;282.00;;
5774;SDS011;2913;51.120;6.772;2023-09-07T19:27:38;586.35;;;72.90;;
5774;SDS011;2913;51.120;6.772;2023-09-07T19:30:07;1108.45;;;201.20;;
5774;SDS011;2913;51.120;6.772;2023-09-07T19:35:01;1546.40;;;350.30;;
5774;SDS011;2913;51.120;6.772;2023-09-07T19:54:32;1782.65;;;420.95;;
5774;SDS011;2913;51.120;6.772;2023-09-07T19:57:00;1999.90;;;861.43;;
5774;SDS011;2913;51.120;6.772;2023-09-07T19:59:26;582.50;;;78.00;;
5774;SDS011;2913;51.120;6.772;2023-09-07T20:04:19;591.63;;;63.28;;
5774;SDS011;2913;51.120;6.772;2023-09-07T20:06:45;578.83;;;65.90;;
5774;SDS011;2913;51.120;6.772;2023-09-07T20:09:11;650.47;;;76.93;;
5774;SDS011;2913;51.120;6.772;2023-09-07T20:11:36;545.63;;;61.90;;
5774;SDS011;2913;51.120;6.772;2023-09-07T20:14:02;535.53;;;60.78;;
5774;SDS011;2913;51.120;6.772;2023-09-07T20:16:30;523.90;;;61.55;;
5774;SDS011;2913;51.120;6.772;2023-09-07T20:18:56;518.43;;;60.67;;
5774;SDS011;2913;51.120;6.772;2023-09-07T20:21:22;524.37;;;61.03;;
5774;SDS011;2913;51.120;6.772;2023-09-07T20:23:52;516.20;;;59.33;;
5774;SDS011;2913;51.120;6.772;2023-09-07T20:26:18;511.90;;;58.72;;
5774;SDS011;2913;51.120;6.772;2023-09-07T20:28:43;506.23;;;59.65;;
5774;SDS011;2913;51.120;6.772;2023-09-07T20:31:13;492.45;;;59.75;;
5774;SDS011;2913;51.120;6.772;2023-09-07T20:33:39;487.70;;;58.50;;
5774;SDS011;2913;51.120;6.772;2023-09-07T20:36:05;491.60;;;59.10;;
5774;SDS011;2913;51.120;6.772;2023-09-07T20:38:33;489.45;;;58.72;;
5774;SDS011;2913;51.120;6.772;2023-09-07T20:40:59;470.08;;;59.00;;
5774;SDS011;2913;51.120;6.772;2023-09-07T20:43:26;484.48;;;65.22;;
5774;SDS011;2913;51.120;6.772;2023-09-07T20:48:20;1999.90;;;850.60;;
5774;SDS011;2913;51.120;6.772;2023-09-07T20:50:46;649.60;;;73.13;;
